createdAt,value
2019-04-25T00:00:14.063Z,96559.71
2019-04-25T00:05:17.726Z,96546.80
2019-04-25T00:10:22.039Z,96541.39
2019-04-25T00:15:25.597Z,96548.99
2019-04-25T00:20:31.193Z,96557.52
2019-04-25T00:25:53.811Z,96553.70
2019-04-25T00:30:57.202Z,96563.45
2019-04-25T00:36:02.056Z,96564.24
2019-04-25T00:41:05.781Z,96564.23
2019-04-25T00:46:09.173Z,96561.50
2019-04-25T00:51:12.805Z,96557.80
2019-04-25T00:56:16.192Z,96563.12
2019-04-25T01:01:22.022Z,96570.80
2019-04-25T01:06:25.484Z,96572.34
2019-04-25T01:11:28.875Z,96588.17
2019-04-25T01:16:32.503Z,96590.25
2019-04-25T01:21:35.895Z,96581.42
2019-04-25T01:26:39.520Z,96585.66
2019-04-25T01:31:43.521Z,96583.66
2019-04-25T01:37:06.481Z,96589.80
2019-04-25T01:42:17.206Z,96582.84
2019-04-25T01:47:23.953Z,96579.37
2019-04-25T01:52:27.647Z,96576.62
2019-04-25T01:57:31.041Z,96583.45
2019-04-25T02:02:34.901Z,96581.66
2019-04-25T02:07:38.638Z,96578.03
2019-04-25T02:12:46.649Z,96569.92
2019-04-25T02:17:51.092Z,96582.01
2019-04-25T02:22:56.235Z,96573.08
2019-04-25T02:28:01.495Z,96572.69
2019-04-25T02:33:08.816Z,96576.96
2019-04-25T02:38:10.486Z,96581.87
2019-04-25T02:43:14.321Z,96579.41
2019-04-25T02:48:19.745Z,96587.63
2019-04-25T02:53:37.398Z,96580.67
2019-04-25T02:58:40.925Z,96577.47
2019-04-25T03:03:44.962Z,96588.39
2019-04-25T03:08:48.487Z,96592.52
2019-04-25T03:13:54.360Z,96582.42
2019-04-25T03:19:14.295Z,96585.91
2019-04-25T03:24:17.728Z,96596.87
2019-04-25T03:29:21.098Z,96590.91
2019-04-25T03:34:25.350Z,96594.79
2019-04-25T03:39:28.859Z,96603.59
2019-04-25T03:44:33.789Z,96611.00
2019-04-25T03:49:37.297Z,96622.05
2019-04-25T03:54:40.696Z,96620.47
2019-04-25T03:59:44.094Z,96618.25
2019-04-25T04:04:47.489Z,96608.92
2019-04-25T04:09:50.887Z,96614.72
2019-04-25T04:14:54.285Z,96626.23
2019-04-25T04:20:03.829Z,96621.58
2019-04-25T04:25:09.537Z,96621.59
2019-04-25T04:30:14.474Z,96624.32
2019-04-25T04:35:18.171Z,96618.55
2019-04-25T04:40:21.552Z,96615.00
2019-04-25T04:45:24.946Z,96627.86
2019-04-25T04:50:28.342Z,96634.14
2019-04-25T04:55:31.732Z,96627.81
2019-04-25T05:00:35.198Z,96635.45
2019-04-25T05:05:40.229Z,96641.20
2019-04-25T05:10:43.641Z,96647.72
2019-04-25T05:15:47.016Z,96641.42
2019-04-25T05:20:50.407Z,96647.42
2019-04-25T05:25:55.738Z,96643.77
2019-04-25T05:31:03.818Z,96658.44
2019-04-25T05:36:07.205Z,96652.59
2019-04-25T05:41:13.907Z,96649.80
2019-04-25T05:46:17.347Z,96648.87
2019-04-25T05:51:21.593Z,96660.51
2019-04-25T05:56:26.967Z,96655.95
2019-04-25T06:01:30.283Z,96647.27
2019-04-25T06:06:36.590Z,96650.85
2019-04-25T06:11:40.593Z,96644.32
2019-04-25T06:16:44.258Z,96657.48
2019-04-25T06:21:48.118Z,96667.88
2019-04-25T06:26:58.946Z,96659.38
2019-04-25T06:32:06.639Z,96656.70
2019-04-25T06:37:07.546Z,96651.45
2019-04-25T06:42:10.952Z,96654.91
2019-04-25T06:47:16.068Z,96632.22
2019-04-25T06:52:19.467Z,96630.68
2019-04-25T06:57:24.438Z,96625.02
2019-04-25T07:02:28.927Z,96620.48
2019-04-25T07:07:34.205Z,96620.94
2019-04-25T07:12:37.459Z,96614.41
2019-04-25T07:17:40.992Z,96601.19
2019-04-25T07:22:44.397Z,96601.19
2019-04-25T07:27:53.490Z,96600.55
2019-04-25T07:32:58.523Z,96603.36
2019-04-25T07:38:03.920Z,96598.61
2019-04-25T07:43:07.345Z,96597.28
2019-04-25T07:48:10.728Z,96593.31
2019-04-25T07:53:14.390Z,96591.75
2019-04-25T07:58:17.720Z,96581.68
2019-04-25T08:03:21.233Z,96578.20
2019-04-25T08:08:24.629Z,96582.15
2019-04-25T08:13:30.107Z,96581.10
2019-04-25T08:18:35.120Z,96574.25
2019-04-25T08:23:39.558Z,96569.52
2019-04-25T08:28:53.994Z,96562.06
2019-04-25T08:33:48.062Z,96559.60
2019-04-25T08:38:53.325Z,96557.85
2019-04-25T08:43:56.880Z,96560.29
2019-04-25T08:49:11.002Z,96553.79
2019-04-25T08:54:18.991Z,96552.02
2019-04-25T08:59:40.099Z,96555.53
2019-04-25T09:04:42.980Z,96550.66
2019-04-25T09:09:47.758Z,96542.05
2019-04-25T09:14:51.382Z,96534.36
2019-04-25T09:19:55.375Z,96540.81
2019-04-25T09:25:03.716Z,96530.72
2019-04-25T09:30:07.739Z,96534.84
2019-04-25T09:35:11.460Z,96525.63
2019-04-25T09:40:16.092Z,96515.78
2019-04-25T09:45:33.573Z,96514.91
2019-04-25T09:50:45.427Z,96516.88
2019-04-25T09:55:56.407Z,96514.78
2019-04-25T10:01:07.167Z,96499.75
2019-04-25T10:06:11.206Z,96494.04
2019-04-25T10:11:14.949Z,96493.98
2019-04-25T10:16:18.352Z,96495.72
2019-04-25T10:21:22.053Z,96493.89
2019-04-25T10:26:26.428Z,96491.38
2019-04-25T10:31:30.144Z,96468.94
2019-04-25T10:36:33.742Z,96476.12
2019-04-25T10:41:39.776Z,96462.63
2019-04-25T10:46:45.687Z,96458.73
2019-04-25T10:51:48.041Z,96458.16
2019-04-25T10:56:52.138Z,96448.92
2019-04-25T11:01:55.674Z,96446.70
2019-04-25T11:06:59.070Z,96434.45
2019-04-25T11:12:02.836Z,96425.48
2019-04-25T11:17:06.532Z,96418.37
2019-04-25T11:22:10.401Z,96423.33
2019-04-25T11:27:13.793Z,96421.96
2019-04-25T11:32:20.005Z,96424.86
2019-04-25T11:37:25.285Z,96419.59
2019-04-25T11:42:28.791Z,96408.36
2019-04-25T11:47:33.464Z,96408.15
2019-04-25T11:52:37.261Z,96398.12
2019-04-25T11:57:40.676Z,96396.29
2019-04-25T12:02:45.390Z,96383.55
2019-04-25T12:07:48.873Z,96380.48
2019-04-25T12:12:53.727Z,96373.70
2019-04-25T12:17:57.578Z,96383.22
2019-04-25T12:23:08.321Z,96364.58
2019-04-25T12:28:06.264Z,96360.15
2019-04-25T12:33:20.409Z,96339.84
2019-04-25T12:38:14.766Z,96342.63
2019-04-25T12:43:18.224Z,96328.75
2019-04-25T12:48:23.360Z,96320.88
2019-04-25T12:53:27.024Z,96317.06
2019-04-25T12:58:30.410Z,96310.23
2019-04-25T13:03:34.091Z,96298.40
2019-04-25T13:08:37.710Z,96305.05
2019-04-25T13:13:41.105Z,96303.83
2019-04-25T13:18:44.497Z,96286.09
2019-04-25T13:23:47.891Z,96277.23
2019-04-25T13:28:56.243Z,96269.75
2019-04-25T13:34:01.682Z,96262.71
2019-04-25T13:39:08.967Z,96256.63
2019-04-25T13:44:14.181Z,96238.61
2019-04-25T13:49:17.595Z,96238.27
2019-04-25T13:54:21.819Z,96243.89
2019-04-25T13:59:26.101Z,96233.89
2019-04-25T14:04:29.563Z,96239.33
2019-04-25T14:09:34.609Z,96240.31
2019-04-25T14:14:38.161Z,96235.87
2019-04-25T14:19:46.140Z,96244.50
2019-04-25T14:24:49.527Z,96235.69
2019-04-25T14:29:53.546Z,96235.83
2019-04-25T14:34:57.497Z,96230.76
2019-04-25T14:40:01.137Z,96224.61
2019-04-25T14:45:07.041Z,96235.67
2019-04-25T14:50:10.929Z,96227.03
2019-04-25T14:55:24.812Z,96227.86
2019-04-25T15:00:35.581Z,96227.42
2019-04-25T15:05:41.863Z,96227.44
2019-04-25T15:10:44.338Z,96219.39
2019-04-25T15:15:47.795Z,96225.45
2019-04-25T15:20:51.189Z,96221.03
2019-04-25T15:25:54.579Z,96217.77
2019-04-25T15:30:58.278Z,96213.59
2019-04-25T15:36:06.007Z,96207.16
2019-04-25T15:41:11.103Z,96204.34
2019-04-25T15:46:19.186Z,96208.26
2019-04-25T15:51:22.581Z,96209.14
2019-04-25T15:56:25.976Z,96205.59
2019-04-25T16:01:30.278Z,96213.70
2019-04-25T16:06:34.095Z,96214.08
2019-04-25T16:11:37.692Z,96213.89
2019-04-25T16:16:41.079Z,96206.95
2019-04-25T16:21:44.470Z,96195.77
2019-04-25T16:26:47.860Z,96201.61
2019-04-25T16:31:51.260Z,96195.03
2019-04-25T16:36:54.649Z,96192.45
2019-04-25T16:41:58.042Z,96200.54
2019-04-25T16:47:01.500Z,96199.66
2019-04-25T16:52:06.530Z,96199.50
2019-04-25T16:57:09.924Z,96190.88
2019-04-25T17:02:13.311Z,96192.91
2019-04-25T17:07:16.946Z,96194.89
2019-04-25T17:12:20.710Z,96195.30
2019-04-25T17:17:31.762Z,96194.29
2019-04-25T17:22:35.148Z,96196.13
2019-04-25T17:27:39.161Z,96191.06
2019-04-25T17:32:54.038Z,96195.89
2019-04-25T17:38:11.160Z,96189.06
2019-04-25T17:43:14.888Z,96190.19
2019-04-25T17:48:18.510Z,96181.13
2019-04-25T17:53:21.900Z,96177.22
2019-04-25T17:58:25.288Z,96173.56
2019-04-25T18:03:29.053Z,96180.60
2019-04-25T18:08:33.249Z,96185.10
2019-04-25T18:13:39.714Z,96185.11
2019-04-25T18:18:47.109Z,96184.27
2019-04-25T18:24:10.275Z,96187.67
2019-04-25T18:29:15.302Z,96190.56
2019-04-25T18:34:22.988Z,96195.37
2019-04-25T18:39:30.423Z,96187.88
2019-04-25T18:44:33.811Z,96198.93
2019-04-25T18:49:38.560Z,96189.53
2019-04-25T18:54:46.062Z,96191.03
2019-04-25T18:59:51.092Z,96191.24
2019-04-25T19:04:56.188Z,96193.60
2019-04-25T19:09:59.581Z,96197.32
2019-04-25T19:15:03.040Z,96207.56
2019-04-25T19:20:06.505Z,96198.25
2019-04-25T19:25:09.953Z,96203.34
2019-04-25T19:30:15.219Z,96204.52
2019-04-25T19:35:18.679Z,96213.69
2019-04-25T19:40:23.711Z,96222.45
2019-04-25T19:45:27.096Z,96225.50
2019-04-25T19:50:30.491Z,96229.17
2019-04-25T19:55:33.880Z,96231.17
2019-04-25T20:00:37.277Z,96237.71
2019-04-25T20:05:51.216Z,96242.43
2019-04-25T20:10:58.934Z,96235.23
2019-04-25T20:16:02.328Z,96232.56
2019-04-25T20:21:05.794Z,96232.42
2019-04-25T20:26:09.253Z,96234.73
2019-04-25T20:31:12.652Z,96241.45
2019-04-25T20:36:17.947Z,96242.41
2019-04-25T20:41:21.483Z,96244.39
2019-04-25T20:46:24.872Z,96244.75
2019-04-25T20:51:28.265Z,96253.36
2019-04-25T20:56:31.657Z,96253.66
2019-04-25T21:01:35.120Z,96260.36
2019-04-25T21:06:40.153Z,96263.16
2019-04-25T21:11:43.543Z,96265.28
2019-04-25T21:16:51.832Z,96262.28
2019-04-25T21:21:55.302Z,96255.80
2019-04-25T21:26:58.938Z,96261.14
2019-04-25T21:32:02.470Z,96252.72
2019-04-25T21:37:05.879Z,96258.63
2019-04-25T21:42:13.945Z,96259.76
2019-04-25T21:47:17.514Z,96261.84
2019-04-25T21:52:21.180Z,96257.47
2019-04-25T21:57:24.750Z,96261.64
2019-04-25T22:02:28.856Z,96260.26
2019-04-25T22:07:33.276Z,96260.48
2019-04-25T22:12:36.943Z,96266.68
2019-04-25T22:17:40.506Z,96267.02
2019-04-25T22:22:43.896Z,96267.83
2019-04-25T22:27:47.552Z,96267.95
2019-04-25T22:32:59.516Z,96261.78
2019-04-25T22:38:02.989Z,96255.42
2019-04-25T22:43:06.381Z,96257.77
2019-04-25T22:48:10.928Z,96256.78
2019-04-25T22:53:22.621Z,96270.62
2019-04-25T22:58:19.813Z,96270.58
2019-04-25T23:03:42.626Z,96271.88
2019-04-25T23:08:46.095Z,96282.78
2019-04-25T23:13:49.479Z,96276.00
2019-04-25T23:18:53.043Z,96281.84
2019-04-25T23:23:56.432Z,96288.33
2019-04-25T23:29:01.461Z,96276.64
2019-04-25T23:34:06.103Z,96305.84
2019-04-25T23:39:10.235Z,96305.84
2019-04-25T23:44:14.570Z,96294.75
2019-04-25T23:49:18.141Z,96307.66
2019-04-25T23:54:21.713Z,96313.61
2019-04-25T23:59:25.341Z,96306.20
